Time;durP1;ratioP1;P1;durP2;ratioP2;P2;SDS_P1;SDS_P2;PMS_P1;PMS_P2;Temp;Humidity;BMP_temperature;BMP_pressure;BME280_temperature;BME280_humidity;BME280_pressure;Samples;Min_cycle;Max_cycle;Signal;HPM_P1;HPM_P2
2021/11/24 00:01:31;;;;;;;10.65;4.60;;;;;;;18.36;75.31;101347.19;5071048;28;20044;-70
2021/11/24 00:04:13;;;;;;;11.05;4.68;;;;;;;18.35;75.40;101353.44;5070571;28;20036;-71
2021/11/24 00:06:42;;;;;;;9.93;4.03;;;;;;;18.37;75.46;101346.31;5070812;28;20060;-70
2021/11/24 00:09:10;;;;;;;9.48;3.95;;;;;;;18.37;75.17;101343.63;5069460;28;20052;-70
2021/11/24 00:11:38;;;;;;;12.82;4.43;;;;;;;18.37;75.36;101332.94;5086250;28;20072;-70
2021/11/24 00:14:06;;;;;;;13.70;3.92;;;;;;;18.37;75.57;101332.94;5069970;28;20127;-71
2021/11/24 00:16:34;;;;;;;8.90;4.38;;;;;;;18.38;75.73;101322.19;5071041;28;20457;-70
2021/11/24 00:19:01;;;;;;;8.00;3.58;;;;;;;18.38;75.76;101313.31;5070424;28;20549;-70
2021/11/24 00:21:29;;;;;;;4.47;2.55;;;;;;;18.39;75.83;101310.63;5070997;28;20041;-70
2021/11/24 00:23:58;;;;;;;11.57;4.85;;;;;;;18.42;75.88;101307.03;5069458;28;20052;-70
2021/11/24 00:26:26;;;;;;;7.97;3.33;;;;;;;18.42;75.84;101291.88;5070531;28;20190;-69
2021/11/24 00:28:54;;;;;;;9.57;4.07;;;;;;;18.43;76.01;101287.44;5071987;28;20045;-69
2021/11/24 00:31:21;;;;;;;8.40;3.53;;;;;;;18.42;76.01;101291.00;5089922;28;20040;-69
2021/11/24 00:33:49;;;;;;;8.27;3.92;;;;;;;18.41;75.94;101287.44;5079021;28;20049;-69
2021/11/24 00:36:17;;;;;;;6.10;3.40;;;;;;;18.41;75.81;101283.88;5056669;28;20044;-70
2021/11/24 00:38:45;;;;;;;9.75;4.10;;;;;;;18.40;75.78;101291.00;5068699;28;20082;-70
2021/11/24 00:41:14;;;;;;;9.63;4.50;;;;;;;18.43;75.88;101295.44;5072621;28;20044;-70
2021/11/24 00:43:42;;;;;;;12.18;3.58;;;;;;;18.41;75.75;101303.47;5089394;28;20041;-70
2021/11/24 00:46:11;;;;;;;11.32;3.10;;;;;;;18.42;75.75;101296.34;5088633;28;20349;-69
2021/11/24 00:48:41;;;;;;;13.07;4.05;;;;;;;18.43;75.71;101299.00;5078320;28;20122;-70
2021/11/24 00:51:08;;;;;;;7.78;3.70;;;;;;;18.45;75.61;101291.84;5073949;28;20040;-70
2021/11/24 00:53:36;;;;;;;7.05;3.08;;;;;;;18.46;75.43;101293.63;5089507;28;20456;-70
2021/11/24 00:56:04;;;;;;;4.95;2.78;;;;;;;18.46;75.23;101279.38;5072981;28;20098;-69
2021/11/24 00:58:34;;;;;;;8.32;3.35;;;;;;;18.51;74.99;101272.22;5072663;28;20044;-69
2021/11/24 01:01:02;;;;;;;6.70;3.42;;;;;;;18.51;74.65;101280.25;5072663;28;20051;-69
2021/11/24 01:03:30;;;;;;;9.93;3.88;;;;;;;18.53;74.19;101270.41;5071937;28;20040;-70
2021/11/24 01:05:57;;;;;;;8.35;3.50;;;;;;;18.54;74.12;101273.06;5073376;28;20041;-69
2021/11/24 01:08:25;;;;;;;8.10;3.97;;;;;;;18.55;73.74;101272.19;5073639;28;20110;-69
2021/11/24 01:10:53;;;;;;;10.55;4.45;;;;;;;18.56;73.42;101273.09;5073669;28;20370;-69
2021/11/24 01:13:20;;;;;;;10.50;4.05;;;;;;;18.58;73.57;101288.19;5074710;28;20094;-69
2021/11/24 01:15:50;;;;;;;11.15;4.47;;;;;;;18.58;73.61;101279.28;5073229;28;20056;-70
2021/11/24 01:18:20;;;;;;;10.30;3.75;;;;;;;18.60;73.69;101281.06;5073085;28;20401;-69
2021/11/24 01:20:48;;;;;;;8.38;3.83;;;;;;;18.61;73.59;101281.97;5073282;28;20040;-69
2021/11/24 01:23:16;;;;;;;8.52;3.47;;;;;;;18.61;73.38;101274.81;5073380;28;20388;-69
2021/11/24 01:25:45;;;;;;;9.02;3.85;;;;;;;18.61;73.37;101268.59;5072163;28;20040;-70
2021/11/24 01:28:13;;;;;;;13.50;5.15;;;;;;;18.60;73.35;101266.81;5073015;28;20040;-69
2021/11/24 01:30:41;;;;;;;12.23;5.63;;;;;;;18.60;72.57;101251.66;5088645;28;20052;-69
2021/11/24 01:33:10;;;;;;;10.35;4.47;;;;;;;18.64;71.70;101260.53;5073074;28;20404;-69
2021/11/24 01:35:38;;;;;;;11.10;4.95;;;;;;;18.65;71.08;101254.28;5088731;28;20049;-70
2021/11/24 01:38:06;;;;;;;7.70;3.67;;;;;;;18.65;71.04;101247.13;5089036;28;20067;-69
2021/11/24 01:40:33;;;;;;;7.78;3.65;;;;;;;18.67;70.59;101249.81;5087384;28;20040;-69
2021/11/24 01:43:01;;;;;;;9.15;4.28;;;;;;;18.67;70.33;101244.44;5072453;28;20118;-70
2021/11/24 01:45:30;;;;;;;8.27;4.05;;;;;;;18.68;70.14;101230.19;5087737;28;20045;-70
2021/11/24 01:47:57;;;;;;;13.27;4.45;;;;;;;18.67;70.01;101234.63;5087962;28;20442;-68
2021/11/24 01:50:27;;;;;;;6.85;3.42;;;;;;;18.68;70.09;101241.75;5072661;28;20512;-69
2021/11/24 01:52:55;;;;;;;10.50;3.45;;;;;;;18.65;70.29;101231.09;5072717;28;20037;-69
2021/11/24 01:55:23;;;;;;;10.93;3.95;;;;;;;18.63;70.50;101230.25;5076445;28;20045;-69
2021/11/24 01:57:53;;;;;;;8.90;3.65;;;;;;;18.58;70.52;101224.03;5072144;28;20064;-70
2021/11/24 02:00:26;;;;;;;6.85;3.65;;;;;;;18.58;70.59;101223.13;5072459;28;20495;-69
2021/11/24 02:02:54;;;;;;;7.68;3.85;;;;;;;18.57;70.39;101226.75;5072664;28;20488;-69
2021/11/24 02:05:23;;;;;;;8.15;3.80;;;;;;;18.58;70.35;101224.03;5074803;28;20036;-71
2021/11/24 02:07:55;;;;;;;10.55;4.35;;;;;;;18.60;69.96;101216.00;5070575;28;20072;-69
2021/11/24 02:10:24;;;;;;;13.38;4.65;;;;;;;18.60;69.95;101219.56;5070920;28;20490;-69
2021/11/24 02:12:53;;;;;;;8.40;4.10;;;;;;;18.62;69.63;101217.75;5087232;28;20052;-69
2021/11/24 02:15:21;;;;;;;10.07;4.20;;;;;;;18.63;69.59;101222.22;5071952;28;20548;-69
2021/11/24 02:17:49;;;;;;;12.05;5.22;;;;;;;18.62;69.40;101208.84;5070743;28;20036;-69
2021/11/24 02:20:35;;;;;;;9.90;4.32;;;;;;;18.61;69.46;101218.66;5076571;28;20139;-69
2021/11/24 02:23:04;;;;;;;11.45;4.47;;;;;;;18.61;69.32;101207.97;5087922;28;20041;-69
2021/11/24 02:25:32;;;;;;;7.50;3.70;;;;;;;18.64;68.96;101212.41;5071709;28;20039;-70
2021/11/24 02:28:00;;;;;;;8.70;4.30;;;;;;;18.64;68.98;101207.91;5070965;28;20071;-69
2021/11/24 02:30:27;;;;;;;8.32;3.58;;;;;;;18.66;68.79;101213.25;5071983;28;20040;-69
2021/11/24 02:32:55;;;;;;;9.55;4.53;;;;;;;18.67;68.55;101204.34;5071517;28;20478;-69
2021/11/24 02:35:24;;;;;;;9.07;4.38;;;;;;;18.68;68.36;101209.66;5072100;28;20044;-69
2021/11/24 02:37:52;;;;;;;8.95;4.72;;;;;;;18.70;68.39;101207.00;5087304;28;20040;-69
2021/11/24 02:40:20;;;;;;;9.05;4.25;;;;;;;18.72;68.02;101199.81;5070274;28;20056;-69
2021/11/24 02:42:48;;;;;;;11.40;4.38;;;;;;;18.74;68.01;101214.06;5087413;28;20051;-69
2021/11/24 02:45:16;;;;;;;9.55;4.38;;;;;;;18.77;67.86;101202.47;5087478;28;20032;-69
2021/11/24 02:48:04;;;;;;;9.00;3.80;;;;;;;18.78;68.02;101209.56;5069947;28;20044;-70
2021/11/24 02:50:33;;;;;;;7.88;3.45;;;;;;;18.79;68.08;101205.97;5086680;28;20064;-69
2021/11/24 02:53:01;;;;;;;7.28;4.30;;;;;;;18.79;68.00;101208.66;5071631;28;20097;-69
2021/11/24 02:55:29;;;;;;;8.40;3.55;;;;;;;18.80;67.77;101211.31;5070498;28;20062;-69
2021/11/24 02:57:57;;;;;;;8.65;3.80;;;;;;;18.81;67.66;101206.84;5073010;28;20203;-69
2021/11/24 03:00:26;;;;;;;10.27;3.88;;;;;;;18.83;67.59;101213.97;5071283;28;20032;-69
2021/11/24 03:02:55;;;;;;;11.52;3.75;;;;;;;18.85;67.41;101205.91;5071419;28;20098;-68
2021/11/24 03:05:27;;;;;;;13.48;4.60;;;;;;;18.86;67.34;101196.97;5071643;28;20032;-69
2021/11/24 03:07:56;;;;;;;8.05;3.97;;;;;;;18.87;67.59;101205.00;5087788;28;20040;-69
2021/11/24 03:10:24;;;;;;;7.47;3.50;;;;;;;18.89;67.74;101196.97;5069710;28;20045;-69
2021/11/24 03:12:52;;;;;;;9.02;4.05;;;;;;;18.90;67.73;101199.63;5086549;28;20044;-69
2021/11/24 03:15:19;;;;;;;7.88;3.72;;;;;;;18.91;67.62;101205.84;5086673;28;20048;-68
2021/11/24 03:17:47;;;;;;;6.97;3.60;;;;;;;18.92;67.77;101200.47;5071011;28;20079;-69
2021/11/24 03:20:15;;;;;;;5.97;3.22;;;;;;;18.94;67.62;101200.47;5086468;28;20086;-69
2021/11/24 03:22:43;;;;;;;8.20;3.70;;;;;;;18.95;67.42;101200.47;5070892;28;20132;-68
2021/11/24 03:25:13;;;;;;;7.05;3.47;;;;;;;18.97;67.21;101190.59;5070831;28;20072;-69
2021/11/24 03:27:43;;;;;;;7.45;3.50;;;;;;;18.98;67.22;101192.38;5072116;28;20102;-69
2021/11/24 03:30:26;;;;;;;9.63;4.43;;;;;;;18.99;67.16;101196.81;5071278;28;20044;-68
2021/11/24 03:32:55;;;;;;;7.63;3.80;;;;;;;18.99;67.11;101193.25;5086669;28;20174;-69
2021/11/24 03:35:24;;;;;;;8.68;3.47;;;;;;;18.99;67.12;101188.78;5086997;28;20037;-68
2021/11/24 03:37:52;;;;;;;8.18;3.78;;;;;;;19.00;66.98;101184.34;5071268;28;20399;-69
2021/11/24 03:40:23;;;;;;;9.63;4.20;;;;;;;19.02;66.60;101183.44;5071214;28;20040;-69
2021/11/24 03:42:52;;;;;;;7.60;3.60;;;;;;;19.01;66.54;101181.66;5069767;28;20066;-68
2021/11/24 03:45:23;;;;;;;11.82;4.30;;;;;;;19.05;66.80;101174.44;5071138;28;20105;-69
2021/11/24 03:47:52;;;;;;;7.68;3.85;;;;;;;19.05;66.54;101175.34;5070918;28;20144;-69
2021/11/24 03:50:20;;;;;;;13.35;4.05;;;;;;;19.10;66.52;101170.81;5070917;28;20121;-69
2021/11/24 03:52:49;;;;;;;8.45;3.83;;;;;;;19.11;66.35;101169.91;5069373;28;20048;-69
2021/11/24 03:55:18;;;;;;;9.55;4.57;;;;;;;19.14;66.31;101173.47;5069778;28;20048;-69
2021/11/24 03:57:48;;;;;;;10.57;4.38;;;;;;;19.16;66.20;101158.28;5070886;28;20044;-69
2021/11/24 04:00:36;;;;;;;7.18;3.72;;;;;;;19.17;65.98;101163.59;5070052;28;20052;-70
2021/11/24 04:03:04;;;;;;;9.88;4.93;;;;;;;19.18;65.76;101141.28;5072126;28;20047;-69
2021/11/24 04:05:32;;;;;;;6.43;3.65;;;;;;;19.18;66.06;101161.78;5073662;28;20067;-69
2021/11/24 04:08:00;;;;;;;8.07;3.95;;;;;;;19.18;66.09;101164.47;5074602;28;20051;-69
2021/11/24 04:10:28;;;;;;;9.20;4.80;;;;;;;19.17;66.18;101158.22;5074795;28;20492;-69
2021/11/24 04:12:57;;;;;;;10.00;3.83;;;;;;;19.18;66.22;101164.47;5074830;28;20051;-69
2021/11/24 04:15:25;;;;;;;7.95;4.75;;;;;;;19.17;66.35;101154.66;5074839;28;20045;-69
2021/11/24 04:17:53;;;;;;;9.95;4.30;;;;;;;19.19;66.23;101166.25;5076362;28;20041;-69
2021/11/24 04:20:21;;;;;;;10.43;3.53;;;;;;;19.18;66.43;101161.78;5056962;28;20435;-68
2021/11/24 04:22:49;;;;;;;9.85;3.80;;;;;;;19.19;66.60;101164.47;5090062;28;20044;-69
2021/11/24 04:25:37;;;;;;;7.57;4.00;;;;;;;19.21;66.62;101167.13;5071380;28;20047;-70
2021/11/24 04:28:07;;;;;;;8.77;4.38;;;;;;;19.23;66.66;101166.19;5074555;28;20040;-68
2021/11/24 04:30:35;;;;;;;7.18;4.20;;;;;;;19.22;66.64;101169.78;5074497;28;20102;-69
2021/11/24 04:33:03;;;;;;;10.85;4.40;;;;;;;19.23;66.43;101166.19;5072804;28;20446;-69
2021/11/24 04:35:31;;;;;;;9.27;4.70;;;;;;;19.22;66.47;101159.06;5078112;28;20048;-69
2021/11/24 04:37:59;;;;;;;7.38;3.45;;;;;;;19.21;66.73;101164.44;5073199;28;20122;-69
2021/11/24 04:40:27;;;;;;;8.32;3.75;;;;;;;19.22;66.71;101159.06;5074154;28;20032;-68
2021/11/24 04:42:55;;;;;;;7.03;3.78;;;;;;;19.22;66.46;101150.16;5073531;28;20468;-69
2021/11/24 04:45:24;;;;;;;7.13;4.05;;;;;;;19.25;66.69;101142.06;5074131;28;20495;-68
2021/11/24 04:47:52;;;;;;;12.90;4.32;;;;;;;19.24;66.43;101156.34;5073987;28;20072;-69
2021/11/24 04:50:20;;;;;;;9.80;4.03;;;;;;;19.23;66.19;101144.75;5076524;28;20055;-68
2021/11/24 04:52:48;;;;;;;15.43;4.57;;;;;;;19.22;66.45;101160.88;5074075;28;20111;-68
2021/11/24 04:55:16;;;;;;;7.97;3.90;;;;;;;19.21;66.67;101164.44;5078160;28;20040;-68
2021/11/24 04:57:44;;;;;;;7.85;4.45;;;;;;;19.20;66.76;101181.41;5073927;28;20051;-69
2021/11/24 05:00:17;;;;;;;6.85;3.92;;;;;;;19.23;66.73;101182.25;5073756;28;20546;-68
2021/11/24 05:02:48;;;;;;;9.38;4.40;;;;;;;19.23;66.57;101168.00;5071987;28;20036;-69
2021/11/24 05:05:16;;;;;;;8.55;3.95;;;;;;;19.21;67.00;101183.19;5072060;28;20534;-69
2021/11/24 05:07:44;;;;;;;9.23;3.50;;;;;;;19.18;67.19;101181.41;5073593;28;20037;-68
2021/11/24 05:10:12;;;;;;;6.18;3.97;;;;;;;19.18;67.17;101178.75;5075429;28;20486;-68
2021/11/24 05:12:40;;;;;;;9.02;3.53;;;;;;;19.19;67.14;101176.94;5073322;28;20037;-68
2021/11/24 05:15:12;;;;;;;8.75;3.83;;;;;;;19.21;66.99;101184.06;5073263;28;20032;-70
2021/11/24 05:17:41;;;;;;;11.48;4.55;;;;;;;19.24;67.07;101188.47;5072939;28;20048;-68
2021/11/24 05:20:12;;;;;;;10.15;3.97;;;;;;;19.25;66.91;101187.59;5073741;28;20165;-68
2021/11/24 05:22:40;;;;;;;6.82;3.65;;;;;;;19.25;66.88;101195.59;5073089;28;20079;-68
2021/11/24 05:25:08;;;;;;;10.40;3.40;;;;;;;19.25;66.88;101198.28;5073046;28;20045;-68
2021/11/24 05:27:36;;;;;;;7.03;3.63;;;;;;;19.24;67.27;101199.19;5073870;28;20040;-68
2021/11/24 05:30:04;;;;;;;9.77;3.45;;;;;;;19.24;67.04;101199.19;5073393;28;20041;-68
2021/11/24 05:32:52;;;;;;;11.43;3.60;;;;;;;19.21;67.42;101201.94;5072326;28;20179;-68
2021/11/24 05:35:22;;;;;;;8.40;3.20;;;;;;;19.23;67.38;101208.16;5073133;28;20075;-68
2021/11/24 05:37:50;;;;;;;8.60;3.20;;;;;;;19.24;67.25;101194.72;5073349;28;20041;-68
2021/11/24 05:40:18;;;;;;;8.32;3.25;;;;;;;19.28;66.88;101199.16;5073109;28;20550;-68
2021/11/24 05:42:49;;;;;;;8.07;3.78;;;;;;;19.31;66.94;101208.91;5073155;28;20036;-69
2021/11/24 05:45:27;;;;;;;11.80;3.55;;;;;;;19.34;66.74;101208.88;5073098;28;20041;-68
2021/11/24 05:47:58;;;;;;;8.70;3.28;;;;;;;19.35;66.50;101216.03;5073047;28;20068;-68
2021/11/24 05:50:28;;;;;;;8.48;3.40;;;;;;;19.37;66.56;101222.22;5072949;28;20525;-68
2021/11/24 05:52:56;;;;;;;8.48;3.70;;;;;;;19.37;66.66;101228.47;5072842;28;20036;-68
2021/11/24 05:55:24;;;;;;;8.07;3.60;;;;;;;19.37;66.79;101231.13;5072684;28;20123;-68
2021/11/24 05:57:52;;;;;;;7.72;3.00;;;;;;;19.37;66.94;101235.59;5072140;28;20068;-68
2021/11/24 06:00:20;;;;;;;11.02;4.68;;;;;;;19.39;66.93;101241.84;5071344;28;20036;-68
2021/11/24 06:03:08;;;;;;;10.82;5.43;;;;;;;19.38;67.19;101238.28;5071729;28;20047;-68
2021/11/24 06:05:38;;;;;;;12.75;5.38;;;;;;;19.41;67.16;101248.06;5072869;28;20374;-68
2021/11/24 06:08:06;;;;;;;12.48;5.00;;;;;;;19.43;67.21;101249.81;5072333;28;20037;-68
2021/11/24 06:10:34;;;;;;;10.00;6.13;;;;;;;19.43;67.06;101246.25;5072263;28;20071;-67
2021/11/24 06:13:02;;;;;;;13.00;7.03;;;;;;;19.47;67.02;101259.63;5072385;28;20052;-68
2021/11/24 06:15:30;;;;;;;13.55;7.20;;;;;;;19.52;67.02;101250.63;5072464;28;20083;-68
2021/11/24 06:17:58;;;;;;;11.68;8.52;;;;;;;19.54;66.64;101260.44;5076870;28;20055;-68
2021/11/24 06:20:27;;;;;;;16.40;11.65;;;;;;;19.57;66.35;101260.38;5072207;28;20056;-68
2021/11/24 06:22:56;;;;;;;15.70;11.32;;;;;;;19.62;66.24;101263.00;5070728;28;20400;-68
2021/11/24 06:25:24;;;;;;;12.73;8.75;;;;;;;19.64;66.08;101267.41;5071129;28;20040;-68
2021/11/24 06:27:52;;;;;;;16.40;9.70;;;;;;;19.68;65.67;101268.28;5072060;28;20494;-68
2021/11/24 06:30:19;;;;;;;10.15;7.25;;;;;;;19.72;65.53;101278.03;5072185;28;20515;-68
2021/11/24 06:32:48;;;;;;;11.60;6.13;;;;;;;19.76;65.61;101272.59;5076703;28;20045;-68
2021/11/24 06:35:16;;;;;;;9.18;5.93;;;;;;;19.79;65.42;101263.66;5071986;28;20102;-69
2021/11/24 06:37:44;;;;;;;16.48;10.20;;;;;;;19.82;65.40;101269.00;5071728;28;20098;-68
2021/11/24 06:40:15;;;;;;;12.68;9.85;;;;;;;19.85;65.60;101269.81;5071512;28;20047;-68
2021/11/24 06:42:43;;;;;;;13.60;7.57;;;;;;;19.86;65.45;101271.59;5071398;28;20040;-69
2021/11/24 06:45:12;;;;;;;9.65;6.82;;;;;;;19.90;65.35;101275.97;5087129;28;20037;-69
2021/11/24 06:47:40;;;;;;;12.63;10.18;;;;;;;19.96;65.20;101282.16;5071405;28;20048;-68
2021/11/24 06:50:09;;;;;;;15.57;7.90;;;;;;;20.02;65.10;101288.31;5070487;28;20051;-69
2021/11/24 06:52:37;;;;;;;12.77;6.75;;;;;;;20.07;65.13;101288.28;5074563;28;20039;-68
2021/11/24 06:55:07;;;;;;;11.27;4.10;;;;;;;20.13;64.50;101286.38;5070629;28;20043;-68
2021/11/24 06:57:37;;;;;;;7.95;4.35;;;;;;;20.19;64.55;101290.75;5071765;28;20103;-68
2021/11/24 07:00:05;;;;;;;6.90;4.25;;;;;;;20.26;64.56;101296.00;5071701;28;20123;-68
2021/11/24 07:02:33;;;;;;;9.10;4.50;;;;;;;20.34;64.09;101290.56;5086951;28;20052;-68
2021/11/24 07:05:01;;;;;;;7.85;4.00;;;;;;;20.40;63.77;101295.81;5071385;28;20472;-68
2021/11/24 07:07:29;;;;;;;9.82;3.80;;;;;;;20.47;64.10;101286.78;5071449;28;20044;-68
2021/11/24 07:10:15;;;;;;;6.30;3.67;;;;;;;20.58;64.20;101302.66;5070935;28;20062;-68
2021/11/24 07:12:44;;;;;;;8.93;3.28;;;;;;;20.68;64.10;101302.47;5071325;28;20052;-70
2021/11/24 07:15:12;;;;;;;6.85;3.47;;;;;;;20.76;63.43;101283.56;5071358;28;20090;-69
2021/11/24 07:17:41;;;;;;;7.28;3.25;;;;;;;20.85;62.27;101288.78;5072358;28;20047;-68
2021/11/24 07:20:23;;;;;;;6.90;3.10;;;;;;;21.02;61.66;101293.81;5069940;28;20044;-69
2021/11/24 07:22:51;;;;;;;8.07;4.00;;;;;;;21.15;61.40;101289.97;5071555;28;20033;-69
2021/11/24 07:25:19;;;;;;;5.55;3.50;;;;;;;21.22;61.05;101289.00;5070784;28;20147;-70
2021/11/24 07:27:48;;;;;;;11.13;3.83;;;;;;;21.27;60.74;101295.13;5070855;28;20048;-68
2021/11/24 07:30:18;;;;;;;9.55;4.28;;;;;;;21.32;60.59;101298.66;5071123;28;20043;-69
2021/11/24 07:32:46;;;;;;;6.38;2.70;;;;;;;21.39;60.37;101297.63;5071345;28;20407;-68
2021/11/24 07:35:34;;;;;;;10.38;3.65;;;;;;;21.56;60.54;101291.88;5078602;28;20122;-70
2021/11/24 07:38:02;;;;;;;6.82;2.80;;;;;;;21.80;60.33;101301.19;5072759;28;20075;-69
2021/11/24 07:40:30;;;;;;;7.20;3.40;;;;;;;22.08;59.91;101297.00;5075505;28;20037;-70
2021/11/24 07:42:59;;;;;;;7.07;3.17;;;;;;;22.39;58.99;101301.66;5075208;28;20071;-70
2021/11/24 07:45:27;;;;;;;5.47;2.60;;;;;;;22.64;58.37;101305.53;5090378;28;20033;-70
2021/11/24 07:47:55;;;;;;;7.97;3.40;;;;;;;22.79;57.13;101306.94;5075018;28;20045;-70
2021/11/24 07:50:23;;;;;;;4.82;2.40;;;;;;;22.91;56.88;101312.91;5075117;28;20115;-69
2021/11/24 07:52:51;;;;;;;4.70;2.20;;;;;;;23.08;56.08;101303.50;5073675;28;20123;-69
2021/11/24 07:55:18;;;;;;;8.13;2.97;;;;;;;23.27;55.39;101297.56;5074710;28;20029;-69
2021/11/24 07:57:46;;;;;;;3.97;2.40;;;;;;;23.47;53.98;101294.31;5074456;28;20036;-70
2021/11/24 08:00:17;;;;;;;6.40;3.25;;;;;;;23.67;52.17;101302.72;5074522;28;20495;-69
2021/11/24 08:02:45;;;;;;;5.65;2.90;;;;;;;23.86;52.18;101299.47;5074238;28;20044;-70
2021/11/24 08:05:12;;;;;;;5.57;2.35;;;;;;;24.08;52.40;101309.53;5074540;28;20128;-70
2021/11/24 08:07:40;;;;;;;5.80;2.72;;;;;;;24.28;52.43;101308.06;5074763;28;20048;-70
2021/11/24 08:10:11;;;;;;;4.78;1.70;;;;;;;24.45;51.54;101309.28;5076237;28;20052;-71
2021/11/24 08:12:39;;;;;;;5.88;1.75;;;;;;;24.58;50.75;101304.34;5068101;28;20036;-69
2021/11/24 08:15:09;;;;;;;5.60;1.95;;;;;;;24.51;50.19;101303.66;5074861;28;20390;-69
2021/11/24 08:17:38;;;;;;;4.85;1.77;;;;;;;24.44;49.78;101309.31;5074159;28;20056;-70
2021/11/24 08:20:08;;;;;;;6.53;1.70;;;;;;;24.47;49.66;101311.94;5074173;28;20044;-70
2021/11/24 08:22:36;;;;;;;6.03;2.00;;;;;;;24.46;49.49;101311.03;5074368;28;20056;-70
2021/11/24 08:25:04;;;;;;;6.03;1.85;;;;;;;24.40;49.14;101313.06;5075478;28;20574;-70
2021/11/24 08:27:32;;;;;;;4.70;1.58;;;;;;;24.27;48.88;101306.28;5074189;28;20041;-67
2021/11/24 08:30:00;;;;;;;4.45;1.83;;;;;;;24.10;49.00;101304.06;5074046;28;20051;-67
2021/11/24 08:32:41;;;;;;;5.97;1.90;;;;;;;23.88;49.00;101308.41;5073894;28;20044;-68
2021/11/24 08:35:10;;;;;;;7.22;2.25;;;;;;;23.65;49.25;101303.69;5074136;28;20072;-67
2021/11/24 08:37:38;;;;;;;5.97;2.08;;;;;;;23.47;49.29;101304.19;5075135;28;20041;-68
2021/11/24 08:40:07;;;;;;;7.57;2.30;;;;;;;23.36;49.63;101309.91;5074271;28;20081;-70
2021/11/24 08:42:35;;;;;;;6.20;2.35;;;;;;;23.23;49.55;101297.69;5073997;28;20386;-70
2021/11/24 08:45:03;;;;;;;5.47;2.13;;;;;;;23.12;49.60;101303.38;5076475;28;20075;-67
2021/11/24 08:47:30;;;;;;;5.20;1.92;;;;;;;23.18;49.74;101302.31;5074137;28;20174;-67
2021/11/24 08:50:00;;;;;;;5.35;2.28;;;;;;;23.37;49.77;101298.16;5073403;28;20052;-67
2021/11/24 08:52:28;;;;;;;8.70;2.80;;;;;;;23.44;49.68;101288.97;5073845;28;20156;-67
2021/11/24 08:54:56;;;;;;;6.05;2.15;;;;;;;23.38;49.36;101284.66;5078019;28;20488;-67
2021/11/24 08:57:23;;;;;;;6.95;2.28;;;;;;;23.31;49.49;101288.44;5073667;28;20036;-67
2021/11/24 08:59:51;;;;;;;7.18;2.22;;;;;;;23.30;49.84;101293.91;5073518;28;20067;-67
2021/11/24 09:02:20;;;;;;;7.95;2.58;;;;;;;23.22;50.64;101287.84;5073259;28;20037;-67
2021/11/24 09:04:48;;;;;;;7.03;2.22;;;;;;;23.11;52.03;101289.94;5073104;28;20044;-67
2021/11/24 09:07:17;;;;;;;7.88;2.63;;;;;;;23.01;53.33;101292.00;5071536;28;20036;-67
2021/11/24 09:09:45;;;;;;;5.85;2.42;;;;;;;22.96;54.26;101292.13;5073362;28;20040;-67
2021/11/24 09:12:33;;;;;;;6.63;2.72;;;;;;;22.95;54.81;101295.75;5070642;28;20048;-68
2021/11/24 09:15:02;;;;;;;7.90;2.75;;;;;;;22.88;55.47;101296.84;5073819;28;20046;-67
2021/11/24 09:17:29;;;;;;;5.85;2.90;;;;;;;22.76;56.11;101294.47;5075273;28;20053;-67
2021/11/24 09:19:57;;;;;;;9.00;3.05;;;;;;;22.54;56.59;101277.06;5089167;28;20040;-67
2021/11/24 09:22:26;;;;;;;6.50;2.60;;;;;;;22.36;56.93;101280.22;5075692;28;20036;-67
2021/11/24 09:24:57;;;;;;;7.13;3.42;;;;;;;22.23;57.35;101277.84;5073218;28;20059;-67
2021/11/24 09:27:31;;;;;;;7.03;3.67;;;;;;;22.11;57.51;101278.13;5073174;28;20036;-66
2021/11/24 09:29:58;;;;;;;;;;;;;;;21.99;58.64;101272.16;5073445;28;20049;-67
2021/11/24 09:32:27;;;;;;;7.13;2.95;;;;;;;21.82;59.36;101277.88;5072783;28;19926;-67
2021/11/24 09:34:55;;;;;;;8.32;3.35;;;;;;;21.73;59.71;101286.13;5072851;28;20118;-67
2021/11/24 09:37:23;;;;;;;9.25;3.10;;;;;;;21.64;60.21;101283.66;5073593;28;20045;-66
2021/11/24 09:39:52;;;;;;;7.28;2.60;;;;;;;21.61;60.54;101283.72;5072354;28;20050;-67
2021/11/24 09:42:25;;;;;;;7.82;2.90;;;;;;;21.62;60.72;101282.78;5072752;28;20056;-68
2021/11/24 09:44:53;;;;;;;8.15;3.28;;;;;;;21.59;60.90;101278.38;5071573;28;20053;-68
2021/11/24 09:47:22;;;;;;;8.35;3.05;;;;;;;21.57;61.44;101274.84;5072834;28;20097;-67
2021/11/24 09:49:50;;;;;;;7.70;3.30;;;;;;;21.57;61.42;101274.84;5072104;28;20040;-67
2021/11/24 09:52:19;;;;;;;6.68;2.97;;;;;;;21.57;61.81;101272.16;5072463;28;20503;-67
2021/11/24 09:54:49;;;;;;;7.53;3.17;;;;;;;21.56;62.11;101256.94;5072842;28;20036;-67
2021/11/24 09:57:20;;;;;;;5.45;2.75;;;;;;;21.59;62.23;101256.88;5072463;28;20507;-67
2021/11/24 09:59:48;;;;;;;6.50;2.60;;;;;;;21.61;62.16;101262.22;5070985;28;20373;-67
2021/11/24 10:02:16;;;;;;;6.68;2.55;;;;;;;21.60;62.22;101269.38;5071713;28;20090;-67
2021/11/24 10:04:45;;;;;;;8.70;2.30;;;;;;;21.62;62.50;101263.97;5072269;28;20376;-67
2021/11/24 10:07:14;;;;;;;7.05;2.22;;;;;;;21.60;62.53;101253.25;5071922;28;20037;-68
2021/11/24 10:09:43;;;;;;;11.63;3.05;;;;;;;21.58;62.77;101246.16;5072210;28;20076;-67
2021/11/24 10:12:12;;;;;;;7.60;2.83;;;;;;;21.55;62.97;101254.28;5072934;28;20040;-67
2021/11/24 10:14:56;;;;;;;6.32;2.65;;;;;;;21.50;63.24;101262.44;5072366;28;20040;-67
2021/11/24 10:17:26;;;;;;;9.52;2.55;;;;;;;21.43;63.94;101261.69;5070532;28;20376;-67
2021/11/24 10:20:02;;;;;;;8.85;2.92;;;;;;;21.40;64.00;101261.75;5071362;28;20045;-68
2021/11/24 10:22:31;;;;;;;6.13;2.80;;;;;;;21.36;64.19;101251.09;5071610;28;20518;-67
2021/11/24 10:25:07;;;;;;;9.27;2.88;;;;;;;21.31;64.47;101253.00;5071723;28;20477;-68
2021/11/24 10:27:42;;;;;;;7.50;2.38;;;;;;;21.25;64.83;101243.28;5071370;28;20123;-68
2021/11/24 10:30:13;;;;;;;10.38;3.33;;;;;;;21.12;64.87;101240.84;5069940;28;20056;-69
2021/11/24 10:32:43;;;;;;;10.55;3.00;;;;;;;20.90;65.60;101243.94;5071720;28;20049;-69
2021/11/24 10:35:10;;;;;;;15.38;4.20;;;;;;;20.65;66.80;101248.88;5071539;28;20036;-70
2021/11/24 10:37:39;;;;;;;8.52;2.70;;;;;;;20.45;67.32;101247.44;5087730;28;20053;-69
2021/11/24 10:40:09;;;;;;;10.77;2.55;;;;;;;20.30;68.63;101248.56;5071284;28;20078;-69
2021/11/24 10:42:39;;;;;;;5.88;2.22;;;;;;;20.19;68.90;101263.94;5071253;28;20040;-68
2021/11/24 10:45:13;;;;;;;11.05;3.17;;;;;;;20.12;69.44;101262.25;5071277;28;20520;-69
2021/11/24 10:47:50;;;;;;;10.32;2.90;;;;;;;20.06;69.81;101263.25;5071184;28;20060;-69
2021/11/24 10:50:20;;;;;;;9.98;2.72;;;;;;;20.06;70.36;101257.00;5071469;28;20033;-68
2021/11/24 10:52:49;;;;;;;25.67;5.13;;;;;;;20.04;71.53;101261.50;5072355;28;20060;-74
2021/11/24 10:55:27;;;;;;;14.80;4.00;;;;;;;19.84;76.65;101256.44;5071258;28;20033;-69
2021/11/24 10:58:01;;;;;;;10.68;3.80;;;;;;;19.73;79.57;101264.63;5071492;28;20060;-68
2021/11/24 11:00:37;;;;;;;22.00;8.23;;;;;;;19.59;81.32;101265.72;5071612;28;20049;-71
2021/11/24 11:03:07;;;;;;;14.88;4.78;;;;;;;19.41;83.38;101257.00;5069888;28;20036;-69
2021/11/24 11:05:42;;;;;;;17.60;6.68;;;;;;;19.37;84.81;101254.34;5069770;28;20048;-71
2021/11/24 11:08:11;;;;;;;26.80;12.07;;;;;;;19.32;85.05;101254.41;5071243;28;20395;-71
2021/11/24 11:10:40;;;;;;;13.27;5.65;;;;;;;19.20;84.70;101243.88;5071425;28;20048;-73
2021/11/24 11:13:12;;;;;;;14.73;4.93;;;;;;;19.01;84.72;101240.53;5075627;28;20036;-74
2021/11/24 11:15:45;;;;;;;23.52;5.28;;;;;;;18.87;85.83;101258.50;5086117;28;20124;-75
2021/11/24 11:18:15;;;;;;;20.23;4.07;;;;;;;18.80;86.99;101242.53;5069057;28;20036;-72
2021/11/24 11:20:46;;;;;;;13.13;3.15;;;;;;;18.69;88.10;101230.16;5070864;28;20045;-71
2021/11/24 11:23:21;;;;;;;9.32;4.53;;;;;;;18.55;88.90;101239.19;5071325;28;20429;-71
2021/11/24 11:25:51;;;;;;;20.52;4.78;;;;;;;18.50;89.89;101260.63;5086019;28;20115;-72
2021/11/24 11:28:21;;;;;;;11.43;3.85;;;;;;;18.50;90.88;101263.31;5070840;28;20498;-71
2021/11/24 11:30:52;;;;;;;47.13;30.20;;;;;;;18.41;92.16;101257.13;5053369;28;20042;-74
2021/11/24 11:33:23;;;;;;;10.73;4.97;;;;;;;18.22;93.29;101251.06;5071357;28;20064;-75